Time;durP1;ratioP1;P1;durP2;ratioP2;P2;SDS_P1;SDS_P2;PMS_P1;PMS_P2;Temp;Humidity;BMP_temperature;BMP_pressure;BME280_temperature;BME280_humidity;BME280_pressure;Samples;Min_cycle;Max_cycle;Signal;HPM_P1;HPM_P2
2022/11/12 00:01:47;;;;;;;;;5.60;5.60;;;;;5.44;72.14;101427.97;5137465;27;9550;-56
2022/11/12 00:04:14;;;;;;;;;4.80;4.00;;;;;5.39;71.95;101424.66;5137406;27;8841;-57
2022/11/12 00:06:42;;;;;;;;;6.00;6.00;;;;;5.38;72.44;101426.41;5136703;27;8818;-58
2022/11/12 00:09:12;;;;;;;;;6.00;6.00;;;;;5.41;72.38;101428.09;5137029;27;8838;-58
2022/11/12 00:11:40;;;;;;;;;6.00;6.00;;;;;5.48;71.63;101426.97;5137025;27;8925;-58
2022/11/12 00:14:08;;;;;;;;;3.20;3.20;;;;;5.56;72.15;101431.03;5137053;27;8834;-58
2022/11/12 00:16:36;;;;;;;;;5.60;5.20;;;;;5.60;71.87;101437.09;5137098;27;8813;-58
2022/11/12 00:19:03;;;;;;;;;5.80;5.60;;;;;5.59;71.65;101428.31;5135902;27;8833;-58
2022/11/12 00:21:31;;;;;;;;;2.60;1.00;;;;;5.63;72.15;101429.06;5137049;27;8818;-58
2022/11/12 00:23:59;;;;;;;;;4.00;3.60;;;;;5.68;71.40;101437.69;5150879;27;8827;-56
2022/11/12 00:26:27;;;;;;;;;3.80;3.80;;;;;5.72;71.82;101432.25;5154491;27;8857;-58
2022/11/12 00:28:55;;;;;;;;;3.00;1.40;;;;;5.75;71.70;101441.81;5135867;27;8814;-58
2022/11/12 00:31:22;;;;;;;;;3.40;3.20;;;;;5.75;71.55;101450.63;5136524;27;8837;-58
2022/11/12 00:33:50;;;;;;;;;6.60;5.60;;;;;5.79;71.83;101440.81;5136311;27;9493;-58
2022/11/12 00:36:18;;;;;;;;;4.80;4.40;;;;;5.79;71.35;101436.44;5135527;27;8825;-58
2022/11/12 00:38:46;;;;;;;;;4.80;4.80;;;;;5.79;71.25;101446.09;5135834;27;8818;-58
2022/11/12 00:41:13;;;;;;;;;3.40;3.40;;;;;5.81;71.28;101457.50;5136204;27;8921;-57
2022/11/12 00:43:41;;;;;;;;;5.20;4.40;;;;;5.85;71.34;101443.25;5136563;27;9604;-57
2022/11/12 00:46:09;;;;;;;;;3.20;3.00;;;;;5.85;71.37;101445.91;5136242;27;8837;-58
2022/11/12 00:48:37;;;;;;;;;1.40;1.40;;;;;5.83;71.37;101445.06;5136508;27;8825;-58
2022/11/12 00:51:04;;;;;;;;;3.20;3.20;;;;;5.78;71.35;101454.94;5136514;27;8814;-57
2022/11/12 00:53:32;;;;;;;;;3.00;3.00;;;;;5.70;71.59;101455.19;5146780;27;8820;-57
2022/11/12 00:56:00;;;;;;;;;3.80;3.00;;;;;5.59;71.97;101453.84;5157598;27;8803;-56
2022/11/12 00:58:29;;;;;;;;;6.20;6.20;;;;;5.47;71.96;101460.44;5152371;27;8825;-58
2022/11/12 01:00:57;;;;;;;;;7.00;7.00;;;;;5.40;72.42;101458.91;5136746;27;8914;-57
2022/11/12 01:03:25;;;;;;;;;6.20;6.20;;;;;5.39;72.11;101464.28;5137069;27;8838;-58
2022/11/12 01:05:52;;;;;;;;;4.00;3.00;;;;;5.40;72.37;101466.00;5137869;27;8826;-58
2022/11/12 01:08:20;;;;;;;;;5.40;5.20;;;;;5.41;71.81;101467.72;5140984;27;8818;-57
2022/11/12 01:10:49;;;;;;;;;7.00;5.80;;;;;5.44;72.02;101467.59;5141214;27;8926;-57
2022/11/12 01:13:17;;;;;;;;;5.20;4.80;;;;;5.44;72.09;101468.47;5141325;27;9566;-58
2022/11/12 01:15:44;;;;;;;;;4.80;4.00;;;;;5.48;72.37;101464.78;5141031;27;9512;-58
2022/11/12 01:18:12;;;;;;;;;4.00;3.20;;;;;5.55;72.17;101465.47;5140678;27;8844;-57
2022/11/12 01:20:39;;;;;;;;;4.00;4.00;;;;;5.60;71.51;101474.06;5140979;27;8817;-58
2022/11/12 01:23:07;;;;;;;;;6.00;6.00;;;;;5.61;71.50;101468.75;5147170;27;8796;-56
2022/11/12 01:25:35;;;;;;;;;4.40;3.80;;;;;5.63;72.09;101471.34;5161633;27;8851;-58
2022/11/12 01:28:03;;;;;;;;;5.20;4.00;;;;;5.65;71.73;101472.13;5160212;27;8828;-58
2022/11/12 01:30:31;;;;;;;;;5.60;4.00;;;;;5.66;71.54;101473.88;5140419;27;8886;-57
2022/11/12 01:32:58;;;;;;;;;3.40;1.00;;;;;5.65;71.69;101467.72;5140446;27;8857;-57
2022/11/12 01:35:28;;;;;;;;;6.00;6.00;;;;;5.61;72.13;101470.53;5140283;27;8837;-55
2022/11/12 01:37:56;;;;;;;;;9.80;6.00;;;;;5.54;72.10;101469.03;5139574;27;8837;-57
2022/11/12 01:40:24;;;;;;;;;6.20;4.00;;;;;5.48;72.31;101471.88;5139566;27;8893;-57
2022/11/12 01:42:51;;;;;;;;;1.80;1.00;;;;;5.40;71.99;101468.63;5140451;27;9508;-58
2022/11/12 01:45:19;;;;;;;;;5.60;4.40;;;;;5.36;72.06;101465.22;5139967;27;8922;-58
2022/11/12 01:47:46;;;;;;;;;5.40;3.60;;;;;5.30;72.54;101461.91;5139945;27;8822;-58
2022/11/12 01:50:15;;;;;;;;;3.60;3.60;;;;;5.24;72.02;101456.88;5139997;27;8825;-58
2022/11/12 01:52:42;;;;;;;;;3.60;3.60;;;;;5.17;73.02;101452.69;5142807;27;8821;-58
2022/11/12 01:55:10;;;;;;;;;3.40;3.00;;;;;5.12;72.51;101450.22;5159216;27;8883;-57
2022/11/12 01:57:37;;;;;;;;;4.00;3.20;;;;;5.07;72.43;101459.19;5139820;27;8821;-57
2022/11/12 02:00:05;;;;;;;;;3.00;3.00;;;;;5.04;73.08;101465.44;5139747;27;8898;-58
2022/11/12 02:02:33;;;;;;;;;4.80;4.40;;;;;5.02;72.63;101461.97;5140265;27;8893;-58
2022/11/12 02:05:00;;;;;;;;;3.80;3.80;;;;;4.98;72.58;101460.38;5139582;27;8802;-57
2022/11/12 02:07:28;;;;;;;;;6.20;5.20;;;;;4.96;73.20;101466.59;5140020;27;8910;-58
2022/11/12 02:09:56;;;;;;;;;4.40;3.20;;;;;4.94;72.58;101471.06;5139911;27;8810;-58
2022/11/12 02:15:09;;;;;;;;;3.00;1.80;;;;;4.89;73.46;101459.78;5139656;27;8821;-58
2022/11/12 02:17:37;;;;;;;;;5.60;5.60;;;;;4.86;72.86;101462.53;5138280;27;8810;-57
2022/11/12 02:20:05;;;;;;;;;6.20;4.80;;;;;4.82;73.40;101459.16;5139484;27;8913;-57
2022/11/12 02:22:33;;;;;;;;;1.80;1.00;;;;;4.80;73.36;101460.94;5139307;27;8821;-58
2022/11/12 02:25:01;;;;;;;;;5.40;1.40;;;;;4.79;72.80;101461.84;5139072;27;8860;-55
2022/11/12 02:27:29;;;;;;;;;5.20;3.60;;;;;4.78;72.76;101461.94;5139245;27;8848;-57
2022/11/12 02:29:57;;;;;;;;;3.60;3.00;;;;;4.78;72.46;101468.06;5139157;27;8848;-57
2022/11/12 02:32:24;;;;;;;;;6.00;6.00;;;;;4.78;72.61;101457.50;5139384;27;8881;-58
2022/11/12 02:34:52;;;;;;;;;1.00;0.80;;;;;4.78;73.02;101459.28;5139365;27;8841;-57
2022/11/12 02:37:20;;;;;;;;;4.80;4.80;;;;;4.73;72.58;101469.13;5139472;27;9504;-57
2022/11/12 02:39:48;;;;;;;;;1.00;1.00;;;;;4.66;72.88;101463.19;5139275;27;8822;-58
2022/11/12 02:42:15;;;;;;;;;6.00;6.00;;;;;4.61;73.30;101464.22;5138972;27;8890;-57
2022/11/12 02:44:43;;;;;;;;;3.00;3.00;;;;;4.56;73.14;101464.34;5138984;27;8915;-57
2022/11/12 02:47:11;;;;;;;;;1.00;1.00;;;;;4.53;73.17;101460.94;5139096;27;8833;-58
2022/11/12 02:49:38;;;;;;;;;4.40;4.40;;;;;4.54;73.37;101466.19;5138797;27;8802;-58
2022/11/12 02:52:06;;;;;;;;;3.40;3.40;;;;;4.58;73.31;101464.31;5138770;27;8886;-58
2022/11/12 02:54:34;;;;;;;;;4.00;4.00;;;;;4.61;73.35;101461.56;5138924;27;8902;-58
2022/11/12 02:57:02;;;;;;;;;1.40;1.40;;;;;4.63;73.53;101465.06;5139109;27;8898;-58
2022/11/12 02:59:29;;;;;;;;;4.00;3.00;;;;;4.65;73.29;101450.88;5138661;27;8898;-56
2022/11/12 03:01:57;;;;;;;;;3.20;3.00;;;;;4.68;73.26;101449.91;5138731;27;8886;-57
2022/11/12 03:04:26;;;;;;;;;3.00;3.00;;;;;4.67;73.14;101456.13;5138774;27;8907;-58
2022/11/12 03:06:54;;;;;;;;;1.40;1.00;;;;;4.64;73.40;101457.06;5138766;27;8890;-57
2022/11/12 03:09:21;;;;;;;;;3.40;2.60;;;;;4.62;73.08;101460.66;5138828;27;8814;-58
2022/11/12 03:11:49;;;;;;;;;1.00;1.00;;;;;4.59;73.51;101460.75;5138802;27;8817;-58
2022/11/12 03:14:17;;;;;;;;;1.00;1.00;;;;;4.54;72.98;101463.53;5138796;27;8883;-56
2022/11/12 03:16:45;;;;;;;;;3.00;3.00;;;;;4.48;73.26;101457.59;5138785;27;8837;-57
2022/11/12 03:19:13;;;;;;;;;3.00;3.00;;;;;4.42;73.58;101452.50;5138474;27;8814;-57
2022/11/12 03:21:40;;;;;;;;;2.60;2.60;;;;;4.39;73.57;101463.13;5138451;27;8897;-57
2022/11/12 03:24:08;;;;;;;;;1.00;1.00;;;;;4.34;73.99;101467.72;5153173;27;8815;-58
2022/11/12 03:26:35;;;;;;;;;1.40;1.40;;;;;4.31;73.82;101471.28;5158728;27;8807;-58
2022/11/12 03:29:05;;;;;;;;;3.00;3.00;;;;;4.29;73.57;101459.06;5153443;27;9537;-58
2022/11/12 03:31:32;;;;;;;;;1.00;1.00;;;;;4.28;73.26;101459.97;5138313;27;8898;-57
2022/11/12 03:34:00;;;;;;;;;4.00;4.00;;;;;4.29;74.04;101462.56;5138118;27;8829;-58
2022/11/12 03:36:27;;;;;;;;;3.00;3.00;;;;;4.32;73.23;101456.31;5138225;27;8829;-58
2022/11/12 03:38:55;;;;;;;;;2.20;1.40;;;;;4.34;73.33;101449.25;5137979;27;8841;-57
2022/11/12 03:41:24;;;;;;;;;4.40;4.40;;;;;4.36;73.46;101453.56;5137826;27;8830;-57
2022/11/12 03:43:51;;;;;;;;;3.40;3.00;;;;;4.38;72.98;101449.09;5137873;27;8829;-58
2022/11/12 03:46:19;;;;;;;;;3.80;3.40;;;;;4.42;73.34;101455.16;5137298;27;8879;-58
2022/11/12 03:48:46;;;;;;;;;1.00;1.00;;;;;4.42;73.09;101452.50;5136573;27;8913;-57
2022/11/12 03:51:15;;;;;;;;;3.00;3.00;;;;;4.40;73.65;101446.44;5136994;27;8897;-58
2022/11/12 03:53:43;;;;;;;;;3.60;3.00;;;;;4.38;73.97;101440.31;5136939;27;8821;-57
2022/11/12 03:56:11;;;;;;;;;3.40;3.00;;;;;4.36;73.02;101439.50;5137373;27;8951;-57
2022/11/12 03:58:39;;;;;;;;;1.80;1.80;;;;;4.34;72.95;101434.28;5137194;27;8806;-57
2022/11/12 04:01:07;;;;;;;;;3.20;3.20;;;;;4.32;72.99;101432.59;5137187;27;8837;-58
2022/11/12 04:03:35;;;;;;;;;4.00;4.00;;;;;4.30;73.27;101442.31;5137612;27;8814;-58
2022/11/12 04:08:48;;;;;;;;;3.00;3.00;;;;;4.22;73.27;101431.16;5137288;27;8846;-58
2022/11/12 04:11:16;;;;;;;;;4.00;4.00;;;;;4.18;73.38;101426.91;5137401;27;9577;-57
2022/11/12 04:13:46;;;;;;;;;0.20;0.00;;;;;4.19;73.48;101433.91;5137463;27;8892;-56
2022/11/12 04:27:20;;;;;;;;;3.40;3.40;;;;;4.19;73.97;101418.91;5136799;27;8833;-57
2022/11/12 04:32:32;;;;;;;;;6.00;5.60;;;;;4.21;73.67;101409.22;5136659;27;8814;-57
2022/11/12 04:35:00;;;;;;;;;4.80;4.80;;;;;4.24;73.74;101405.59;5137033;27;8937;-57
2022/11/12 04:37:28;;;;;;;;;1.00;0.20;;;;;4.27;73.70;101406.38;5136668;27;8822;-58
2022/11/12 04:44:58;;;;;;;;;3.60;3.00;;;;;4.29;73.18;101398.44;5136301;27;8886;-58
2022/11/12 04:45:30;;;;;;;;;4.20;4.20;;;;;4.31;73.82;101407.13;5136511;27;8878;-58
2022/11/12 04:47:58;;;;;;;;;7.80;6.60;;;;;4.33;73.22;101392.16;5136753;27;8829;-58
2022/11/12 04:50:26;;;;;;;;;3.60;3.00;;;;;4.34;73.15;101396.53;5136184;27;8802;-58
2022/11/12 04:52:53;;;;;;;;;10.00;6.60;;;;;4.35;73.50;101396.44;5136640;27;8826;-58
2022/11/12 04:55:21;;;;;;;;;6.20;6.00;;;;;4.35;73.71;101387.69;5136910;27;8813;-58
2022/11/12 04:57:48;;;;;;;;;6.60;6.60;;;;;4.33;73.61;101394.81;5137012;27;8907;-58
2022/11/12 05:00:17;;;;;;;;;3.40;3.40;;;;;4.30;73.69;101394.88;5136144;27;8818;-57
2022/11/12 05:02:45;;;;;;;;;1.80;0.60;;;;;4.28;73.18;101387.00;5136658;27;8814;-57
2022/11/12 05:05:13;;;;;;;;;4.40;4.40;;;;;4.25;73.35;101381.00;5136212;27;8821;-57
2022/11/12 05:07:40;;;;;;;;;3.00;3.00;;;;;4.21;73.67;101385.50;5136001;27;8830;-58
2022/11/12 05:10:08;;;;;;;;;3.60;3.00;;;;;4.18;73.80;101374.19;5136030;27;8817;-58
2022/11/12 05:12:36;;;;;;;;;3.00;3.00;;;;;4.16;73.91;101386.53;5136316;27;8833;-58
2022/11/12 05:15:03;;;;;;;;;0.60;0.60;;;;;4.16;73.66;101382.13;5136360;27;8810;-58
2022/11/12 05:17:31;;;;;;;;;1.00;1.00;;;;;4.14;73.57;101388.34;5136466;27;8805;-59
2022/11/12 05:19:58;;;;;;;;;3.60;3.00;;;;;4.07;73.99;101381.53;5135937;27;8802;-58
2022/11/12 05:22:26;;;;;;;;;1.40;1.40;;;;;3.99;73.38;101388.81;5136084;27;8802;-58
2022/11/12 05:25:12;;;;;;;;;3.00;3.00;;;;;3.93;73.69;101383.72;5136375;27;8848;-58
2022/11/12 05:27:39;;;;;;;;;4.00;3.80;;;;;3.87;74.33;101386.53;5135885;27;8822;-58
2022/11/12 05:30:07;;;;;;;;;1.40;1.40;;;;;3.82;74.45;101383.19;5136201;27;9533;-58
2022/11/12 05:32:36;;;;;;;;;2.20;2.20;;;;;3.78;73.62;101378.06;5136185;27;8898;-58
2022/11/12 05:35:04;;;;;;;;;4.00;4.00;;;;;3.75;74.41;101379.84;5136135;27;9565;-58
2022/11/12 05:37:31;;;;;;;;;1.00;0.40;;;;;3.74;74.46;101382.53;5136388;27;8821;-57
2022/11/12 05:39:59;;;;;;;;;3.80;3.00;;;;;3.71;74.49;101393.16;5136238;27;9457;-57
2022/11/12 05:42:27;;;;;;;;;1.00;1.00;;;;;3.71;74.33;101392.31;5136356;27;8968;-58
2022/11/12 05:44:55;;;;;;;;;3.20;2.60;;;;;3.70;74.61;101383.53;5136533;27;8914;-58
2022/11/12 05:47:23;;;;;;;;;3.80;2.60;;;;;3.69;74.00;101379.16;5136292;27;8930;-58
2022/11/12 05:49:51;;;;;;;;;3.00;3.00;;;;;3.68;74.53;101385.34;5135963;27;8798;-58
2022/11/12 05:52:18;;;;;;;;;1.80;1.00;;;;;3.69;74.13;101394.97;5138045;27;9779;-58
2022/11/12 05:54:46;;;;;;;;;3.00;2.60;;;;;3.69;73.96;101381.81;5139939;27;8902;-57
2022/11/12 05:57:16;;;;;;;;;4.00;3.80;;;;;3.71;74.46;101379.13;5139703;27;8821;-58
2022/11/12 05:59:44;;;;;;;;;4.80;4.40;;;;;3.72;74.61;101381.69;5140185;27;8902;-58
2022/11/12 06:02:11;;;;;;;;;6.00;5.60;;;;;3.72;74.30;101385.22;5139913;27;9504;-58
2022/11/12 06:04:39;;;;;;;;;5.60;5.60;;;;;3.76;73.91;101378.09;5139788;27;8840;-58
2022/11/12 06:07:06;;;;;;;;;4.00;3.80;;;;;3.80;74.12;101377.94;5139789;27;8891;-58
2022/11/12 06:09:35;;;;;;;;;5.60;5.60;;;;;3.83;73.87;101372.59;5139910;27;8858;-57
2022/11/12 06:12:05;;;;;;;;;3.20;3.20;;;;;3.84;74.15;101381.34;5139824;27;8826;-58
2022/11/12 06:14:33;;;;;;;;;4.00;3.20;;;;;3.84;73.98;101384.88;5139477;27;8938;-57
2022/11/12 06:17:01;;;;;;;;;3.80;3.20;;;;;3.84;74.05;101389.25;5140296;27;8834;-57
2022/11/12 06:19:29;;;;;;;;;1.00;1.00;;;;;3.84;74.22;101389.25;5139475;27;8894;-58
2022/11/12 06:21:57;;;;;;;;;3.00;3.00;;;;;3.85;73.91;101386.59;5139345;27;8814;-58
2022/11/12 06:24:25;;;;;;;;;6.00;6.00;;;;;3.84;74.17;101390.13;5156419;27;8835;-58
2022/11/12 06:27:00;;;;;;;;;7.00;7.00;;;;;3.87;73.75;101395.31;5159494;27;8828;-58
2022/11/12 06:29:28;;;;;;;;;0.00;0.00;;;;;3.91;73.47;101396.09;5155601;27;8814;-59
2022/11/12 06:31:56;;;;;;;;;3.40;3.40;;;;;3.93;73.50;101397.75;5138811;27;8852;-59
2022/11/12 06:34:26;;;;;;;;;3.20;3.20;;;;;3.95;73.28;101400.38;5138300;27;8918;-58
2022/11/12 06:36:54;;;;;;;;;4.00;4.00;;;;;3.96;73.44;101394.19;5138914;27;8938;-58
2022/11/12 06:39:21;;;;;;;;;5.60;4.00;;;;;3.97;73.61;101395.91;5138898;27;9536;-58
2022/11/12 06:41:49;;;;;;;;;4.00;4.00;;;;;3.98;74.04;101389.72;5138751;27;8822;-58
2022/11/12 06:44:16;;;;;;;;;6.60;6.20;;;;;3.97;73.55;101386.22;5138862;27;8830;-58
2022/11/12 06:46:48;;;;;;;;;5.20;4.80;;;;;3.97;73.38;101391.47;5138952;27;8832;-58
2022/11/12 06:49:16;;;;;;;;;0.80;0.00;;;;;3.97;73.53;101395.91;5138533;27;8814;-58
2022/11/12 06:51:44;;;;;;;;;2.20;2.20;;;;;3.94;73.28;101399.50;5137818;27;8914;-57
2022/11/12 06:54:12;;;;;;;;;4.00;3.00;;;;;3.91;73.91;101403.97;5153173;27;8816;-58
2022/11/12 06:56:40;;;;;;;;;4.00;4.00;;;;;3.86;73.49;101398.84;5159574;27;8819;-58
2022/11/12 06:59:09;;;;;;;;;1.00;1.00;;;;;3.81;73.51;101408.66;5158857;27;8800;-58
2022/11/12 07:01:37;;;;;;;;;1.80;1.00;;;;;3.74;73.95;101409.72;5138561;27;8836;-56
2022/11/12 07:04:05;;;;;;;;;2.20;2.20;;;;;3.70;74.16;101409.88;5137888;27;8829;-58
2022/11/12 07:06:33;;;;;;;;;1.00;1.00;;;;;3.66;74.60;101410.00;5138238;27;8974;-58
2022/11/12 07:09:01;;;;;;;;;0.00;0.00;;;;;3.65;74.41;101410.91;5138420;27;8842;-56
2022/11/12 07:11:28;;;;;;;;;4.00;4.00;;;;;3.66;74.43;101407.38;5137341;27;8810;-57
2022/11/12 07:13:57;;;;;;;;;2.20;2.20;;;;;3.67;74.12;101418.72;5137271;27;8951;-58
2022/11/12 07:16:24;;;;;;;;;4.80;4.00;;;;;3.73;73.66;101422.97;5136930;27;8854;-59
2022/11/12 07:18:52;;;;;;;;;1.00;1.00;;;;;3.77;73.67;101419.31;5136476;27;8910;-58
2022/11/12 07:21:20;;;;;;;;;4.00;3.40;;;;;3.83;73.74;101413.88;5135858;27;8826;-58
2022/11/12 07:23:47;;;;;;;;;1.00;0.40;;;;;3.89;74.07;101422.47;5147535;27;8819;-58
2022/11/12 07:26:16;;;;;;;;;1.00;1.00;;;;;3.94;73.99;101406.50;5156826;27;8850;-58
2022/11/12 07:28:44;;;;;;;;;3.60;3.60;;;;;3.98;73.31;101414.28;5156606;27;8843;-58
2022/11/12 07:31:12;;;;;;;;;6.80;4.00;;;;;4.03;73.25;101420.28;5140000;27;8814;-58
2022/11/12 07:33:40;;;;;;;;;3.00;3.00;;;;;4.09;73.16;101421.88;5137504;27;8844;-58
2022/11/12 07:36:12;;;;;;;;;4.00;4.00;;;;;4.10;73.71;101429.75;5137770;27;8829;-58
2022/11/12 07:38:40;;;;;;;;;3.80;3.80;;;;;4.11;73.31;101425.34;5137734;27;8833;-58
2022/11/12 07:41:08;;;;;;;;;4.00;3.60;;;;;4.11;72.93;101430.63;5137578;27;8821;-56
2022/11/12 07:43:35;;;;;;;;;4.00;4.00;;;;;4.12;73.06;101429.72;5137372;27;8821;-58
2022/11/12 07:46:03;;;;;;;;;4.00;4.00;;;;;4.12;73.47;101435.81;5136832;27;8841;-58
2022/11/12 07:48:38;;;;;;;;;6.40;6.00;;;;;4.13;73.25;101434.06;5136164;27;8841;-58
2022/11/12 07:51:06;;;;;;;;;4.00;3.60;;;;;4.16;73.41;101431.31;5136767;27;8844;-58
2022/11/12 07:53:34;;;;;;;;;4.00;4.00;;;;;4.19;73.54;101442.66;5146423;27;8819;-57
2022/11/12 07:56:03;;;;;;;;;6.20;6.00;;;;;4.23;73.55;101441.66;5156924;27;8827;-58
2022/11/12 07:58:31;;;;;;;;;4.00;4.00;;;;;4.28;72.94;101436.25;5149318;27;8832;-58
2022/11/12 08:00:58;;;;;;;;;6.40;5.20;;;;;4.35;72.72;101440.44;5137037;27;8810;-57
2022/11/12 08:03:26;;;;;;;;;5.00;3.80;;;;;4.41;72.53;101445.53;5137466;27;8826;-58
2022/11/12 08:05:54;;;;;;;;;6.80;5.60;;;;;4.49;72.60;101440.88;5136717;27;8833;-56
2022/11/12 08:08:22;;;;;;;;;6.20;5.20;;;;;4.58;72.48;101443.22;5136738;27;8826;-57
2022/11/12 08:10:50;;;;;;;;;4.00;4.00;;;;;4.68;72.57;101445.53;5135967;27;8806;-56
2022/11/12 08:13:17;;;;;;;;;0.80;0.40;;;;;4.84;72.04;101441.47;5136761;27;8822;-56
2022/11/12 08:15:46;;;;;;;;;4.00;3.00;;;;;4.99;72.02;101440.09;5136494;27;8830;-58
2022/11/12 08:18:19;;;;;;;;;4.00;4.00;;;;;5.13;71.76;101437.88;5136233;27;8834;-58
2022/11/12 08:20:46;;;;;;;;;1.80;1.80;;;;;5.26;71.17;101436.53;5136169;27;8817;-57
2022/11/12 08:23:14;;;;;;;;;5.20;4.40;;;;;5.39;70.93;101441.34;5142345;27;8808;-56
2022/11/12 08:25:44;;;;;;;;;3.60;3.60;;;;;5.53;71.35;101446.16;5155976;27;8846;-58
2022/11/12 08:28:12;;;;;;;;;1.80;1.40;;;;;5.69;70.82;101450.00;5151518;27;9831;-56
2022/11/12 08:30:39;;;;;;;;;4.00;4.00;;;;;5.85;70.30;101440.63;5134899;27;9515;-56
2022/11/12 08:33:07;;;;;;;;;0.40;0.40;;;;;6.01;70.41;101441.78;5135208;27;8833;-58
2022/11/12 08:35:35;;;;;;;;;3.80;3.20;;;;;6.15;70.10;101435.03;5135200;27;9560;-57
2022/11/12 08:38:03;;;;;;;;;5.20;4.00;;;;;6.32;70.00;101431.75;5134732;27;8853;-58
2022/11/12 08:40:31;;;;;;;;;1.40;1.00;;;;;6.47;70.12;101426.75;5135354;27;8806;-58
2022/11/12 08:42:58;;;;;;;;;4.00;4.00;;;;;6.63;69.22;101427.00;5135311;27;8822;-58
2022/11/12 08:45:26;;;;;;;;;6.20;5.20;;;;;6.75;68.98;101421.22;5136247;27;8817;-59
2022/11/12 08:47:54;;;;;;;;;3.00;3.00;;;;;6.85;68.95;101411.97;5136372;27;8853;-58
2022/11/12 08:50:21;;;;;;;;;2.60;2.60;;;;;6.95;69.00;101411.53;5136383;27;8942;-58
2022/11/12 08:52:50;;;;;;;;;5.60;4.80;;;;;7.07;68.99;101404.88;5140124;27;8831;-58
2022/11/12 08:55:17;;;;;;;;;0.40;0.00;;;;;7.17;68.55;101408.84;5156468;27;8816;-56
2022/11/12 08:57:45;;;;;;;;;3.00;3.00;;;;;7.25;68.85;101409.38;5156847;27;8852;-57
2022/11/12 09:00:13;;;;;;;;;5.20;4.00;;;;;7.33;68.69;101409.91;5156888;27;8819;-58
2022/11/12 09:02:41;;;;;;;;;4.40;3.60;;;;;7.40;69.07;101411.38;5157507;27;8842;-58
2022/11/12 09:05:09;;;;;;;;;3.20;1.00;;;;;7.51;68.44;101406.47;5150419;27;8833;-56
2022/11/12 09:07:37;;;;;;;;;5.80;5.00;;;;;7.61;68.23;101405.13;5136025;27;9511;-57
2022/11/12 09:10:20;;;;;;;;;4.00;4.00;;;;;7.74;67.95;101402.75;5135456;27;8971;-56
2022/11/12 09:12:48;;;;;;;;;4.60;4.60;;;;;7.89;68.53;101398.53;5135564;27;8844;-57
2022/11/12 09:15:16;;;;;;;;;3.00;3.00;;;;;8.05;67.97;101403.06;5135643;27;8845;-58
2022/11/12 09:18:04;;;;;;;;;5.60;3.20;;;;;8.24;67.40;101403.09;5135751;27;8969;-58
2022/11/12 09:20:32;;;;;;;;;6.20;6.00;;;;;8.40;67.28;101401.44;5135131;27;8842;-58
2022/11/12 09:23:00;;;;;;;;;6.40;6.00;;;;;8.58;66.69;101400.59;5139613;27;8812;-56
2022/11/12 09:25:28;;;;;;;;;4.00;4.00;;;;;8.75;66.85;101401.47;5154984;27;8831;-57
2022/11/12 09:27:56;;;;;;;;;6.40;6.00;;;;;8.92;66.68;101400.66;5157165;27;8820;-57
2022/11/12 09:30:24;;;;;;;;;3.00;3.00;;;;;9.08;66.73;101406.91;5158855;27;9502;-58
2022/11/12 09:32:52;;;;;;;;;4.50;4.50;;;;;9.27;65.86;101400.59;5157714;27;8828;-58
2022/11/12 09:35:20;;;;;;;;;3.50;3.50;;;;;9.46;65.71;101404.03;5145609;27;8825;-58
2022/11/12 09:37:48;;;;;;;;;6.50;6.00;;;;;9.65;65.63;101396.81;5121721;27;8852;-56
2022/11/12 09:40:16;;;;;;;;;6.00;5.50;;;;;9.83;65.14;101393.19;5117498;27;8842;-57
2022/11/12 09:42:44;;;;;;;;;1.00;1.00;;;;;10.04;65.39;101391.19;5137257;27;8838;-58
2022/11/12 09:45:12;;;;;;;;;6.00;6.00;;;;;10.31;64.36;101382.56;5137238;27;8825;-58
2022/11/12 09:47:42;;;;;;;;;7.00;6.25;;;;;10.65;63.94;101389.50;5136754;27;8829;-58
2022/11/12 09:50:10;;;;;;;;;6.00;6.00;;;;;11.02;64.14;101375.78;5137347;27;8826;-59
2022/11/12 09:52:38;;;;;;;;;8.00;8.00;;;;;11.38;63.40;101371.78;5131189;27;8812;-58
2022/11/12 09:55:06;;;;;;;;;4.00;3.50;;;;;11.78;62.78;101373.81;5157642;27;8831;-59
2022/11/12 09:57:34;;;;;;;;;7.00;6.50;;;;;12.28;62.00;101369.66;5157360;27;8958;-58
2022/11/12 10:00:04;;;;;;;;;4.50;4.50;;;;;12.87;61.09;101363.97;5123339;27;8937;-59
2022/11/12 10:02:32;;;;;;;;;9.00;7.00;;;;;13.62;59.27;101365.97;5136554;27;8817;-59
2022/11/12 10:05:00;;;;;;;;;7.50;7.00;;;;;14.29;58.47;101362.94;5136915;27;8846;-58
2022/11/12 10:07:28;;;;;;;;;6.00;6.00;;;;;14.63;57.39;101365.72;5135888;27;8936;-58
2022/11/12 10:09:56;;;;;;;;;6.50;5.00;;;;;14.78;57.43;101363.72;5137131;27;8849;-60
2022/11/12 10:12:35;;;;;;;;;4.00;4.00;;;;;14.88;57.46;101364.75;5137564;27;8825;-59
2022/11/12 10:16:41;;;;;;;;;7.50;7.00;;;;;14.92;58.47;101366.22;5137563;27;8856;-59
2022/11/12 10:17:50;;;;;;;;;9.50;9.50;;;;;14.86;58.33;101361.34;5137253;27;8830;-59
2022/11/12 10:20:18;;;;;;;;;9.00;7.00;;;;;14.82;58.86;101362.53;5136891;27;8822;-58
2022/11/12 10:22:47;;;;;;;;;6.50;6.50;;;;;14.76;59.25;101362.97;5137024;27;8846;-62
2022/11/12 10:25:15;;;;;;;;;6.25;6.00;;;;;14.67;60.59;101361.00;5135592;27;8866;-57
2022/11/12 10:27:43;;;;;;;;;6.75;6.25;;;;;14.54;60.88;101363.72;5134998;27;8822;-59
2022/11/12 10:30:11;;;;;;;;;8.50;8.50;;;;;14.43;61.14;101368.16;5135317;27;8826;-59
2022/11/12 10:32:39;;;;;;;;;7.00;7.00;;;;;14.35;61.03;101363.34;5135726;27;8826;-59
2022/11/12 10:35:07;;;;;;;;;7.00;6.25;;;;;14.33;61.06;101370.63;5136225;27;8846;-58
2022/11/12 10:37:35;;;;;;;;;6.00;5.50;;;;;14.37;61.31;101363.22;5136595;27;8830;-60
2022/11/12 10:40:03;;;;;;;;;7.00;7.00;;;;;14.41;61.41;101370.09;5135399;27;8822;-59
2022/11/12 10:42:31;;;;;;;;;7.50;7.00;;;;;14.49;61.46;101359.66;5135200;27;8833;-59
2022/11/12 10:44:59;;;;;;;;;6.00;5.00;;;;;14.59;60.76;101358.88;5135370;27;9600;-58
2022/11/12 10:47:27;;;;;;;;;4.00;4.00;;;;;14.68;61.59;101357.34;5133878;27;8843;-58
2022/11/12 10:49:56;;;;;;;;;12.00;11.50;;;;;14.86;60.88;101358.66;5133985;27;8829;-57
2022/11/12 10:52:23;;;;;;;;;9.00;9.00;;;;;15.12;60.03;101355.72;5134428;27;8838;-57
2022/11/12 10:54:51;;;;;;;;;9.00;7.50;;;;;15.31;59.61;101352.50;5113878;28;8989;-57
2022/11/12 10:57:21;;;;;;;;;9.75;9.00;;;;;15.31;59.68;101347.13;5113725;28;9857;-56
2022/11/12 10:59:49;;;;;;;;;9.25;9.25;;;;;15.23;60.75;101363.81;5113834;28;8816;-56
2022/11/12 11:02:18;;;;;;;;;7.50;7.50;;;;;15.10;60.69;101365.69;5113266;28;8828;-57
2022/11/12 11:04:46;;;;;;;;;9.00;8.50;;;;;14.99;60.73;101352.25;5113073;28;8836;-57
2022/11/12 11:07:14;;;;;;;;;9.25;9.00;;;;;14.89;61.15;101350.38;5112838;28;8838;-58
2022/11/12 11:09:42;;;;;;;;;9.50;9.50;;;;;14.79;61.10;101344.84;5113185;28;8843;-59
2022/11/12 11:12:11;;;;;;;;;3.50;3.50;;;;;14.69;61.47;101337.59;5112992;28;8862;-57
2022/11/12 11:14:39;;;;;;;;;6.50;6.50;;;;;14.60;62.11;101339.16;5114918;28;8824;-59
2022/11/12 11:17:08;;;;;;;;;7.75;6.00;;;;;14.54;62.28;101342.28;5129171;27;8846;-58
2022/11/12 11:19:36;;;;;;;;;7.00;6.25;;;;;14.49;61.48;101347.09;5135005;27;8940;-57
2022/11/12 11:22:04;;;;;;;;;4.00;4.00;;;;;14.42;62.16;101335.13;5135214;27;8802;-58
2022/11/12 11:24:32;;;;;;;;;3.25;3.25;;;;;14.38;61.86;101346.19;5153840;27;8811;-59
2022/11/12 11:26:59;;;;;;;;;7.00;6.50;;;;;14.37;62.08;101336.44;5156689;27;8823;-57
2022/11/12 11:29:27;;;;;;;;;7.50;7.50;;;;;14.38;62.10;101338.13;5156726;27;8812;-60
2022/11/12 11:31:55;;;;;;;;;6.00;6.00;;;;;14.45;61.75;101334.91;5156208;27;9587;-59
2022/11/12 11:34:24;;;;;;;;;8.50;8.50;;;;;14.61;61.10;101335.50;5155959;27;8828;-57
2022/11/12 11:36:54;;;;;;;;;6.50;6.00;;;;;14.80;61.25;101327.78;5156552;27;8819;-59
2022/11/12 11:39:22;;;;;;;;;6.25;6.00;;;;;14.92;60.60;101320.63;5156174;27;8853;-59
2022/11/12 11:41:50;;;;;;;;;8.00;8.00;;;;;14.99;60.53;101325.44;5156572;27;9532;-58
2022/11/12 11:44:20;;;;;;;;;6.00;6.00;;;;;15.06;60.84;101331.19;5156422;27;8819;-59
2022/11/12 11:46:48;;;;;;;;;5.50;5.50;;;;;15.17;60.29;101313.28;5136489;27;8825;-57
2022/11/12 11:49:16;;;;;;;;;6.00;6.00;;;;;15.25;60.38;101320.75;5135333;27;8833;-59
2022/11/12 11:51:44;;;;;;;;;6.00;6.00;;;;;15.31;60.19;101310.44;5135306;27;8829;-59
2022/11/12 11:54:12;;;;;;;;;5.50;5.00;;;;;15.44;59.64;101316.56;5150409;27;8816;-59
2022/11/12 11:56:40;;;;;;;;;5.00;5.00;;;;;15.60;59.38;101310.84;5155648;27;8830;-58
2022/11/12 11:59:08;;;;;;;;;6.25;6.00;;;;;15.67;59.51;101307.56;5155146;27;8949;-59
2022/11/12 12:01:38;;;;;;;;;5.00;4.00;;;;;15.67;59.35;101304.00;5154614;27;8954;-58
2022/11/12 12:04:06;;;;;;;;;2.00;2.00;;;;;15.63;59.70;101306.06;5153211;27;9513;-58
2022/11/12 12:06:33;;;;;;;;;5.00;5.00;;;;;15.62;60.13;101304.38;5154408;27;8823;-59